Time;durP1;ratioP1;P1;durP2;ratioP2;P2;SDS_P1;SDS_P2;PMS_P1;PMS_P2;Temp;Humidity;BMP_temperature;BMP_pressure;BME280_temperature;BME280_humidity;BME280_pressure;Samples;Min_cycle;Max_cycle;Signal;HPM_P1;HPM_P2
2023/11/24 00:02:26;;;;;;;1.98;1.25;;;23.00;43.00;;;;;;6177051;28;81164;-58
2023/11/24 00:05:26;;;;;;;1.40;1.30;;;23.00;43.00;;;;;;6165378;28;80492;-58
2023/11/24 00:08:27;;;;;;;1.42;1.05;;;23.00;43.00;;;;;;6176039;28;80620;-61
2023/11/24 00:11:27;;;;;;;2.15;1.10;;;23.00;42.90;;;;;;6177499;28;80497;-68
2023/11/24 00:14:28;;;;;;;1.45;1.13;;;23.00;42.90;;;;;;6176786;28;81016;-67
2023/11/24 00:17:28;;;;;;;1.45;1.20;;;23.00;43.00;;;;;;6176967;28;80487;-68
2023/11/24 00:20:29;;;;;;;1.75;0.90;;;23.00;42.90;;;;;;6175904;28;80356;-68
2023/11/24 00:23:30;;;;;;;1.30;1.08;;;23.00;43.00;;;;;;6175744;28;80872;-66
2023/11/24 00:26:30;;;;;;;1.38;0.90;;;23.00;43.00;;;;;;6176251;28;81569;-66
2023/11/24 00:29:34;;;;;;;2.75;1.05;;;23.00;43.00;;;;;;6175946;28;80293;-63
2023/11/24 00:32:39;;;;;;;1.42;1.13;;;23.00;43.00;;;;;;6176051;28;80387;-62
2023/11/24 00:35:40;;;;;;;1.10;1.00;;;23.00;43.10;;;;;;6172968;28;83129;-62
2023/11/24 00:38:41;;;;;;;1.63;1.10;;;23.00;43.10;;;;;;6170952;28;83118;-62
2023/11/24 00:41:42;;;;;;;2.22;1.13;;;23.00;43.10;;;;;;6173171;28;80333;-62
2023/11/24 00:44:43;;;;;;;1.50;1.00;;;23.00;43.20;;;;;;6172619;28;81474;-62
2023/11/24 00:47:44;;;;;;;1.33;0.95;;;23.00;43.20;;;;;;6174124;28;80568;-63
2023/11/24 00:50:44;;;;;;;1.33;1.00;;;22.90;43.10;;;;;;6172284;28;80912;-63
2023/11/24 00:53:45;;;;;;;1.55;1.00;;;23.00;43.10;;;;;;6174466;28;80486;-64
2023/11/24 00:56:45;;;;;;;2.05;0.90;;;22.90;43.10;;;;;;6175687;28;81356;-65
2023/11/24 00:59:46;;;;;;;1.42;1.17;;;23.00;43.10;;;;;;6171118;28;80419;-62
2023/11/24 01:02:47;;;;;;;2.10;1.20;;;23.00;43.10;;;;;;6174989;28;80775;-61
2023/11/24 01:05:51;;;;;;;1.40;1.27;;;23.00;43.10;;;;;;6167511;28;80783;-60
2023/11/24 01:08:51;;;;;;;1.95;0.98;;;23.00;43.20;;;;;;6173974;28;81931;-60
2023/11/24 01:11:52;;;;;;;1.17;0.85;;;23.00;43.10;;;;;;6174960;28;80314;-61
2023/11/24 01:14:53;;;;;;;1.20;1.00;;;23.00;43.10;;;;;;6175387;28;80044;-59
2023/11/24 01:17:54;;;;;;;1.60;0.90;;;23.00;43.10;;;;;;6174398;28;83447;-59
2023/11/24 01:20:55;;;;;;;1.15;0.93;;;23.00;43.20;;;;;;6174780;28;80722;-59
2023/11/24 01:23:59;;;;;;;0.98;0.85;;;23.00;43.20;;;;;;6175601;28;80632;-59
2023/11/24 01:27:03;;;;;;;1.37;1.10;;;23.00;43.80;;;;;;6173969;28;81993;-59
2023/11/24 01:30:03;;;;;;;0.80;0.80;;;23.00;43.30;;;;;;6173454;28;80930;-59
2023/11/24 01:33:04;;;;;;;1.45;0.90;;;23.00;43.30;;;;;;6173346;28;83146;-60
2023/11/24 01:36:05;;;;;;;2.10;1.00;;;23.00;43.30;;;;;;6173663;28;82909;-60
2023/11/24 01:39:09;;;;;;;0.77;0.77;;;23.00;43.30;;;;;;6174611;28;86568;-59
2023/11/24 01:42:10;;;;;;;1.08;1.00;;;23.00;43.40;;;;;;6153920;28;83066;-67
2023/11/24 01:45:11;;;;;;;0.98;0.80;;;23.00;43.40;;;;;;6149756;28;81722;-67
2023/11/24 01:48:11;;;;;;;0.82;0.82;;;23.00;43.40;;;;;;6150758;28;81627;-66
2023/11/24 01:51:12;;;;;;;1.50;1.00;;;23.00;43.50;;;;;;6151077;28;80258;-67
2023/11/24 01:54:12;;;;;;;0.68;0.68;;;23.00;43.50;;;;;;6179557;28;80487;-74
2023/11/24 01:57:13;;;;;;;0.77;0.77;;;23.00;43.90;;;;;;6174184;28;80651;-70
2023/11/24 02:00:13;;;;;;;4.05;0.90;;;23.00;43.90;;;;;;6183741;28;83597;-74
2023/11/24 02:03:14;;;;;;;1.27;0.70;;;23.00;43.90;;;;;;6147822;28;81510;-70
2023/11/24 02:06:15;;;;;;;2.08;0.90;;;23.00;43.90;;;;;;6164218;28;83458;-64
2023/11/24 02:09:16;;;;;;;1.10;1.00;;;23.00;44.00;;;;;;6182114;28;83408;-69
2023/11/24 02:12:16;;;;;;;1.30;0.70;;;23.00;44.10;;;;;;6187779;28;81877;-68
2023/11/24 02:15:16;;;;;;;0.90;0.80;;;23.00;44.00;;;;;;6175048;28;80207;-68
2023/11/24 02:18:17;;;;;;;1.20;0.82;;;23.00;44.00;;;;;;6144814;28;81079;-59
2023/11/24 02:21:18;;;;;;;0.90;0.68;;;23.00;43.90;;;;;;6166023;28;80599;-60
2023/11/24 02:24:19;;;;;;;0.55;0.52;;;23.00;44.60;;;;;;6193092;28;81656;-60
2023/11/24 02:27:20;;;;;;;0.65;0.65;;;23.00;44.00;;;;;;6200095;28;81826;-59
2023/11/24 02:30:21;;;;;;;0.70;0.70;;;23.00;44.10;;;;;;6191165;28;81812;-59
2023/11/24 02:33:22;;;;;;;1.23;0.82;;;23.00;44.10;;;;;;6187748;28;83383;-59
2023/11/24 02:36:27;;;;;;;1.05;0.60;;;23.00;44.00;;;;;;6177037;28;83691;-67
2023/11/24 02:39:29;;;;;;;0.85;0.65;;;23.00;44.00;;;;;;6185745;28;83157;-68
2023/11/24 02:42:30;;;;;;;0.50;0.50;;;23.00;44.00;;;;;;6177009;28;80941;-69
2023/11/24 02:45:31;;;;;;;6.63;1.23;;;23.00;44.00;;;;;;6175924;28;87066;-69
2023/11/24 02:48:31;;;;;;;0.80;0.47;;;23.00;43.80;;;;;;6176917;28;80946;-71
2023/11/24 02:51:32;;;;;;;2.55;0.57;;;23.00;44.00;;;;;;6175231;28;82264;-67
2023/11/24 02:54:33;;;;;;;0.50;0.50;;;23.00;44.00;;;;;;6176286;28;80254;-68
2023/11/24 02:57:33;;;;;;;0.65;0.65;;;23.00;44.00;;;;;;6167146;28;80570;-68
2023/11/24 03:00:34;;;;;;;1.02;0.68;;;23.00;44.10;;;;;;6180308;28;80970;-68
2023/11/24 03:03:34;;;;;;;0.40;0.40;;;23.00;44.00;;;;;;6177508;28;80888;-67
2023/11/24 03:06:35;;;;;;;0.50;0.50;;;23.00;44.00;;;;;;6170539;28;80365;-65
2023/11/24 03:09:35;;;;;;;0.40;0.40;;;23.00;44.00;;;;;;6187645;28;83579;-64
2023/11/24 03:12:37;;;;;;;0.73;0.50;;;23.00;44.10;;;;;;6178005;28;80581;-68
2023/11/24 03:15:38;;;;;;;1.05;0.95;;;23.00;44.00;;;;;;6178202;28;80518;-68
2023/11/24 03:18:38;;;;;;;0.77;0.70;;;22.90;43.90;;;;;;6171048;28;82564;-68
2023/11/24 03:21:40;;;;;;;0.50;0.50;;;23.00;44.00;;;;;;6178885;28;82038;-69
2023/11/24 03:24:41;;;;;;;1.42;0.50;;;22.90;44.00;;;;;;6178593;28;81022;-68
2023/11/24 03:27:42;;;;;;;0.85;0.63;;;22.90;44.00;;;;;;6178348;28;80202;-69
2023/11/24 03:30:42;;;;;;;1.40;0.70;;;22.90;44.60;;;;;;6175409;28;80951;-68
2023/11/24 03:33:43;;;;;;;0.80;0.60;;;22.90;43.90;;;;;;6177325;28;80218;-67
2023/11/24 03:36:43;;;;;;;0.60;0.60;;;22.90;44.00;;;;;;6178149;28;80750;-68
2023/11/24 03:39:44;;;;;;;0.98;0.40;;;22.90;44.00;;;;;;6178576;28;81309;-69
2023/11/24 03:42:44;;;;;;;1.15;0.65;;;22.90;44.00;;;;;;6178453;28;80873;-69
2023/11/24 03:45:45;;;;;;;0.50;0.50;;;22.90;44.00;;;;;;6176848;28;80386;-68
2023/11/24 03:48:45;;;;;;;0.98;0.60;;;22.90;43.90;;;;;;6177322;28;80806;-68
2023/11/24 03:51:46;;;;;;;0.60;0.60;;;22.90;43.90;;;;;;6177317;28;81337;-67
2023/11/24 03:54:46;;;;;;;0.73;0.60;;;22.90;43.80;;;;;;6171096;28;82911;-67
2023/11/24 03:57:47;;;;;;;0.68;0.45;;;22.90;43.90;;;;;;6172214;28;81250;-68
2023/11/24 04:00:47;;;;;;;0.88;0.50;;;22.90;43.90;;;;;;6170988;28;80995;-65
2023/11/24 04:03:48;;;;;;;0.77;0.50;;;22.90;43.90;;;;;;6178845;28;81339;-71
2023/11/24 04:06:48;;;;;;;14.75;0.82;;;22.90;44.00;;;;;;6172786;28;82013;-63
2023/11/24 04:09:49;;;;;;;0.70;0.43;;;22.90;44.00;;;;;;6176654;28;81115;-71
2023/11/24 04:12:49;;;;;;;0.60;0.60;;;22.90;43.90;;;;;;6177104;28;82772;-70
2023/11/24 04:15:50;;;;;;;1.20;0.90;;;22.90;44.20;;;;;;6177828;28;80779;-64
2023/11/24 04:18:50;;;;;;;0.88;0.60;;;22.90;43.80;;;;;;6175206;28;80623;-69
2023/11/24 04:21:51;;;;;;;2.80;0.50;;;23.00;43.80;;;;;;6177673;28;81385;-65
2023/11/24 04:24:51;;;;;;;1.13;0.50;;;23.00;43.60;;;;;;6176712;28;85337;-72
2023/11/24 04:27:52;;;;;;;0.77;0.60;;;23.00;43.60;;;;;;6177507;28;80298;-62
2023/11/24 04:30:52;;;;;;;1.40;0.50;;;23.00;43.30;;;;;;6176146;28;80245;-69
2023/11/24 04:33:53;;;;;;;0.63;0.55;;;23.00;43.10;;;;;;6176232;28;80490;-67
2023/11/24 04:36:54;;;;;;;0.40;0.40;;;23.00;43.30;;;;;;6175991;28;80356;-69
2023/11/24 04:39:55;;;;;;;1.20;0.40;;;23.00;43.10;;;;;;6175265;28;81088;-72
2023/11/24 04:42:56;;;;;;;0.40;0.40;;;23.10;43.20;;;;;;6174700;28;80381;-70
2023/11/24 04:45:56;;;;;;;0.65;0.60;;;23.10;43.30;;;;;;6175618;28;81115;-67
2023/11/24 04:49:02;;;;;;;2.28;0.40;;;23.10;43.20;;;;;;6173407;28;80402;-64
2023/11/24 04:52:04;;;;;;;0.70;0.47;;;23.20;43.30;;;;;;6174019;28;80635;-65
2023/11/24 04:55:04;;;;;;;0.43;0.40;;;23.20;43.30;;;;;;6175820;28;84662;-69
2023/11/24 04:58:05;;;;;;;1.65;0.75;;;23.20;43.50;;;;;;6171092;28;80462;-67
2023/11/24 05:01:05;;;;;;;0.77;0.60;;;23.20;43.60;;;;;;6175201;28;80860;-71
2023/11/24 05:04:06;;;;;;;1.70;0.50;;;23.20;43.90;;;;;;6173577;28;81551;-57
2023/11/24 05:07:06;;;;;;;3.25;0.60;;;23.20;44.10;;;;;;6172545;28;80724;-61
2023/11/24 05:10:07;;;;;;;1.02;0.80;;;23.30;44.90;;;;;;6176980;28;80805;-58
2023/11/24 05:13:07;;;;;;;1.00;0.63;;;23.30;44.30;;;;;;6154088;28;81896;-59
2023/11/24 05:16:08;;;;;;;1.65;0.57;;;23.30;44.40;;;;;;6165600;28;82633;-59
2023/11/24 05:19:09;;;;;;;1.85;0.68;;;23.30;44.20;;;;;;6169976;28;82636;-58
2023/11/24 05:22:09;;;;;;;1.42;0.60;;;23.30;44.00;;;;;;6173867;28;80852;-69
2023/11/24 05:25:10;;;;;;;3.05;0.73;;;23.30;44.00;;;;;;6175641;28;80335;-60
2023/11/24 05:28:10;;;;;;;2.25;0.60;;;23.30;44.30;;;;;;6174538;28;81209;-66
2023/11/24 05:31:11;;;;;;;5.10;0.60;;;23.30;44.10;;;;;;6170857;28;81304;-66
2023/11/24 05:34:11;;;;;;;4.22;0.60;;;23.40;45.00;;;;;;6152855;28;83761;-69
2023/11/24 05:37:12;;;;;;;0.50;0.50;;;23.40;45.00;;;;;;6169573;28;82347;-67
2023/11/24 05:40:12;;;;;;;2.28;0.70;;;23.40;44.80;;;;;;6159158;28;81026;-58
2023/11/24 05:43:13;;;;;;;0.60;0.60;;;23.40;45.00;;;;;;6170037;28;80463;-60
2023/11/24 05:46:13;;;;;;;1.20;0.70;;;23.40;44.70;;;;;;6165221;28;82022;-61
2023/11/24 05:49:15;;;;;;;1.17;0.60;;;23.40;44.60;;;;;;6166884;28;81822;-64
2023/11/24 05:52:15;;;;;;;2.80;0.82;;;23.40;44.40;;;;;;6163936;28;80788;-74
2023/11/24 05:55:16;;;;;;;9.30;0.90;;;23.40;44.70;;;;;;6167096;28;82079;-67
2023/11/24 05:58:17;;;;;;;6.78;0.80;;;23.50;44.90;;;;;;6165322;28;81103;-66
2023/11/24 06:01:19;;;;;;;2.90;0.50;;;23.50;45.10;;;;;;6165115;28;80682;-62
2023/11/24 06:04:19;;;;;;;5.40;0.75;;;23.40;45.20;;;;;;6175501;28;80517;-62
2023/11/24 06:07:22;;;;;;;7.13;1.20;;;23.40;45.00;;;;;;6172997;28;81243;-62
2023/11/24 06:10:23;;;;;;;2.10;0.80;;;23.40;45.00;;;;;;6175252;28;80388;-63
2023/11/24 06:13:23;;;;;;;1.40;0.80;;;23.40;44.70;;;;;;6174187;28;83692;-62
2023/11/24 06:16:24;;;;;;;1.63;0.70;;;23.40;44.50;;;;;;6174402;28;81377;-60
2023/11/24 06:19:24;;;;;;;1.70;0.55;;;23.40;44.40;;;;;;6174929;28;81531;-60
2023/11/24 06:22:25;;;;;;;3.25;0.77;;;23.30;44.30;;;;;;6163489;28;81052;-63
2023/11/24 06:25:26;;;;;;;0.80;0.55;;;23.30;44.20;;;;;;6158457;28;80546;-59
2023/11/24 06:28:26;;;;;;;1.17;0.60;;;23.30;44.20;;;;;;6169226;28;86638;-61
2023/11/24 06:31:27;;;;;;;1.63;0.73;;;23.30;44.20;;;;;;6175911;28;81219;-60
2023/11/24 06:34:28;;;;;;;3.45;0.85;;;23.30;43.90;;;;;;6152934;28;80874;-60
2023/11/24 06:37:28;;;;;;;2.75;0.80;;;23.30;44.00;;;;;;6161713;28;81366;-61
2023/11/24 06:40:29;;;;;;;1.67;0.70;;;23.30;43.80;;;;;;6166020;28;86689;-61
2023/11/24 06:43:29;;;;;;;1.73;0.73;;;23.20;43.90;;;;;;6167996;28;85261;-61
2023/11/24 06:46:30;;;;;;;2.80;0.88;;;23.20;43.90;;;;;;6164412;28;84850;-61
2023/11/24 06:49:32;;;;;;;1.70;0.70;;;23.30;43.70;;;;;;6163727;28;83288;-60
2023/11/24 06:52:33;;;;;;;1.20;0.73;;;23.20;43.90;;;;;;6171708;28;80763;-60
2023/11/24 06:55:33;;;;;;;1.63;0.70;;;23.20;43.50;;;;;;6170766;28;80779;-60
2023/11/24 06:58:34;;;;;;;2.72;0.70;;;23.10;43.40;;;;;;6163272;28;81657;-62
2023/11/24 07:01:35;;;;;;;1.88;0.82;;;23.10;43.20;;;;;;6171875;28;80614;-64
2023/11/24 07:04:36;;;;;;;1.88;0.80;;;23.10;43.70;;;;;;6171318;28;80392;-59
2023/11/24 07:07:37;;;;;;;3.15;0.80;;;23.10;42.90;;;;;;6173774;28;81387;-59
2023/11/24 07:10:38;;;;;;;4.13;1.02;;;23.10;42.80;;;;;;6174236;28;80310;-60
2023/11/24 07:13:38;;;;;;;0.88;0.60;;;23.10;42.60;;;;;;6153133;28;85200;-61
2023/11/24 07:16:39;;;;;;;1.40;0.95;;;23.10;42.50;;;;;;6175693;28;81166;-61
2023/11/24 07:19:40;;;;;;;1.05;0.60;;;23.10;42.50;;;;;;6175718;28;80532;-61
2023/11/24 07:22:44;;;;;;;1.38;0.90;;;23.10;42.40;;;;;;6175433;28;81183;-60
2023/11/24 07:25:45;;;;;;;3.28;0.68;;;23.10;42.40;;;;;;6175918;28;80499;-60
2023/11/24 07:28:45;;;;;;;1.33;0.80;;;23.20;42.30;;;;;;6157303;28;81587;-61
2023/11/24 07:31:46;;;;;;;2.17;1.30;;;23.20;42.40;;;;;;6167691;28;80988;-61
2023/11/24 07:34:46;;;;;;;2.47;1.00;;;23.30;42.50;;;;;;6177410;28;81318;-60
2023/11/24 07:37:47;;;;;;;1.60;0.90;;;23.30;42.60;;;;;;6174306;28;80292;-61
2023/11/24 07:40:47;;;;;;;2.13;1.00;;;23.40;42.70;;;;;;6175470;28;81183;-60
2023/11/24 07:43:48;;;;;;;5.53;1.65;;;23.40;42.60;;;;;;6175447;28;80515;-60
2023/11/24 07:46:48;;;;;;;3.53;1.13;;;23.40;42.70;;;;;;6176174;28;81395;-60
2023/11/24 07:49:49;;;;;;;2.00;0.95;;;23.30;43.30;;;;;;6172962;28;82124;-60
2023/11/24 07:52:50;;;;;;;2.35;1.02;;;23.30;42.60;;;;;;6176020;28;80665;-61
2023/11/24 07:55:51;;;;;;;3.05;1.02;;;23.30;42.50;;;;;;6176707;28;80500;-59
2023/11/24 07:58:51;;;;;;;2.22;1.00;;;23.40;42.70;;;;;;6170962;28;82199;-61
2023/11/24 08:01:52;;;;;;;2.55;1.50;;;23.50;42.40;;;;;;6176799;28;81503;-60
2023/11/24 08:04:52;;;;;;;2.17;1.00;;;23.50;42.60;;;;;;6176708;28;80480;-67
2023/11/24 08:07:53;;;;;;;2.60;0.90;;;23.60;42.40;;;;;;6174806;28;80478;-66
2023/11/24 08:10:53;;;;;;;2.80;1.05;;;23.70;42.50;;;;;;6148373;28;81467;-66
2023/11/24 08:13:54;;;;;;;3.10;0.73;;;23.70;42.50;;;;;;6167705;28;80536;-64
2023/11/24 08:16:54;;;;;;;2.05;1.20;;;23.70;42.60;;;;;;6175541;28;80440;-65
2023/11/24 08:19:55;;;;;;;3.92;1.73;;;23.80;42.80;;;;;;6176208;28;83489;-65
2023/11/24 08:22:55;;;;;;;1.02;0.80;;;23.80;42.50;;;;;;6172200;28;82831;-66
2023/11/24 08:25:56;;;;;;;1.38;0.90;;;23.90;42.60;;;;;;6168454;28;80885;-64
2023/11/24 08:28:56;;;;;;;3.72;0.98;;;23.90;42.40;;;;;;6175605;28;81202;-65
2023/11/24 08:31:57;;;;;;;1.75;0.88;;;23.90;42.70;;;;;;6175348;28;80238;-64
2023/11/24 08:34:58;;;;;;;4.10;1.40;;;24.00;42.50;;;;;;6174099;28;80806;-66
2023/11/24 08:37:58;;;;;;;2.45;0.98;;;24.00;43.40;;;;;;6164266;28;80626;-67
2023/11/24 08:40:59;;;;;;;2.05;1.13;;;24.00;42.80;;;;;;6175316;28;80465;-65
2023/11/24 08:43:59;;;;;;;4.82;1.20;;;24.00;42.60;;;;;;6175139;28;80570;-64
2023/11/24 08:47:00;;;;;;;2.65;1.38;;;24.00;42.40;;;;;;6174194;28;80818;-66
2023/11/24 08:50:01;;;;;;;2.63;1.20;;;24.00;42.40;;;;;;6175135;28;81639;-64
2023/11/24 08:53:04;;;;;;;3.50;1.60;;;24.10;42.30;;;;;;6175808;28;81299;-64
2023/11/24 08:56:04;;;;;;;3.30;1.27;;;24.10;42.60;;;;;;6175238;28;81270;-67
2023/11/24 08:59:11;;;;;;;3.25;1.23;;;24.10;42.20;;;;;;6174740;28;80950;-66
2023/11/24 09:02:12;;;;;;;3.05;1.30;;;24.20;42.00;;;;;;6176157;28;80417;-60
2023/11/24 09:05:12;;;;;;;3.05;1.30;;;24.20;42.10;;;;;;6175158;28;81172;-60
2023/11/24 09:08:13;;;;;;;4.00;1.40;;;24.30;41.80;;;;;;6174257;28;82722;-60
2023/11/24 09:11:14;;;;;;;1.77;0.95;;;24.30;42.00;;;;;;6170755;28;84180;-60
2023/11/24 09:14:14;;;;;;;4.28;1.30;;;24.30;41.80;;;;;;6175146;28;80224;-61
2023/11/24 09:17:15;;;;;;;3.72;1.58;;;24.30;42.40;;;;;;6172218;28;80876;-59
2023/11/24 09:20:16;;;;;;;1.50;1.08;;;24.40;41.60;;;;;;6175126;28;80549;-61
2023/11/24 09:23:17;;;;;;;3.05;1.40;;;24.30;42.10;;;;;;6173353;28;80254;-61
2023/11/24 09:26:17;;;;;;;2.63;1.20;;;24.20;42.30;;;;;;6173748;28;80754;-62
2023/11/24 09:29:19;;;;;;;2.72;1.23;;;24.30;42.10;;;;;;6174196;28;80823;-63
2023/11/24 09:32:19;;;;;;;5.30;1.65;;;24.30;41.60;;;;;;6172468;28;80960;-62
2023/11/24 09:35:20;;;;;;;3.38;1.38;;;24.40;41.50;;;;;;6174347;28;80444;-62
2023/11/24 09:38:20;;;;;;;4.07;1.63;;;24.50;41.30;;;;;;6174219;28;81256;-63
2023/11/24 09:41:21;;;;;;;4.13;1.70;;;24.60;41.50;;;;;;6173613;28;80566;-61
2023/11/24 09:44:21;;;;;;;3.95;1.58;;;24.70;41.40;;;;;;6177148;28;87062;-61
2023/11/24 09:47:22;;;;;;;3.05;1.08;;;24.70;41.40;;;;;;6177800;28;81866;-63
2023/11/24 09:50:26;;;;;;;4.40;1.50;;;24.80;41.20;;;;;;6174824;28;80422;-63
2023/11/24 09:53:26;;;;;;;3.15;1.38;;;24.80;41.00;;;;;;6174932;28;80709;-64
2023/11/24 09:56:27;;;;;;;2.65;1.40;;;24.80;41.10;;;;;;6174593;28;81532;-70
2023/11/24 09:59:28;;;;;;;2.58;1.50;;;24.90;41.20;;;;;;6171276;28;80662;-67
2023/11/24 10:02:28;;;;;;;2.13;1.27;;;25.00;41.10;;;;;;6173500;28;80428;-65
2023/11/24 10:05:29;;;;;;;4.22;1.70;;;25.10;41.00;;;;;;6175097;28;81008;-65
2023/11/24 10:08:30;;;;;;;3.80;1.48;;;25.30;41.00;;;;;;6174366;28;81000;-66
2023/11/24 10:11:33;;;;;;;3.38;1.60;;;25.40;41.00;;;;;;6173810;28;80466;-67
2023/11/24 10:14:33;;;;;;;4.20;1.48;;;25.50;40.90;;;;;;6172858;28;85436;-67
2023/11/24 10:17:34;;;;;;;3.25;1.65;;;25.50;40.80;;;;;;6170415;28;80499;-60
2023/11/24 10:20:35;;;;;;;2.63;1.35;;;25.60;40.90;;;;;;6173703;28;80322;-60
2023/11/24 10:23:36;;;;;;;3.85;1.80;;;25.60;40.70;;;;;;6175315;28;80989;-61
2023/11/24 10:26:40;;;;;;;3.35;1.50;;;25.70;40.80;;;;;;6174998;28;80688;-59
2023/11/24 10:29:41;;;;;;;3.58;1.80;;;25.70;40.70;;;;;;6171175;28;85042;-59
2023/11/24 10:32:43;;;;;;;3.58;1.65;;;25.80;40.60;;;;;;6171753;28;81264;-60
2023/11/24 10:35:44;;;;;;;3.22;1.50;;;25.80;40.60;;;;;;6174294;28;81291;-60
2023/11/24 10:38:44;;;;;;;3.03;1.52;;;25.90;40.50;;;;;;6173444;28;80489;-59
2023/11/24 10:41:46;;;;;;;5.13;2.28;;;26.00;41.20;;;;;;6172436;28;80828;-60
2023/11/24 10:44:46;;;;;;;5.70;1.83;;;25.30;36.70;;;;;;6175350;28;82173;-62
2023/11/24 10:47:48;;;;;;;4.95;1.90;;;25.00;36.50;;;;;;6179444;28;80678;-60
2023/11/24 10:50:48;;;;;;;7.32;2.38;;;24.90;34.90;;;;;;6178654;28;81031;-59
2023/11/24 10:53:52;;;;;;;5.88;2.13;;;24.60;34.50;;;;;;6176428;28;80550;-59
2023/11/24 10:56:52;;;;;;;7.22;2.80;;;24.70;34.40;;;;;;6177066;28;80444;-59
2023/11/24 10:59:53;;;;;;;7.38;2.70;;;24.80;34.30;;;;;;6172517;28;80857;-59
2023/11/24 11:02:55;;;;;;;9.27;2.85;;;24.70;33.80;;;;;;6174639;28;80396;-59
2023/11/24 11:05:55;;;;;;;4.60;2.30;;;24.80;33.70;;;;;;6177342;28;80369;-59
2023/11/24 11:08:57;;;;;;;6.97;2.17;;;24.80;33.70;;;;;;6177081;28;80425;-59
2023/11/24 11:12:02;;;;;;;10.07;2.78;;;24.80;33.70;;;;;;6168574;28;81065;-66
2023/11/24 11:15:04;;;;;;;7.63;2.60;;;24.80;33.60;;;;;;6178342;28;80489;-65
2023/11/24 11:18:04;;;;;;;5.93;2.55;;;24.80;33.80;;;;;;6178007;28;80319;-66
2023/11/24 11:21:05;;;;;;;6.10;2.10;;;24.80;33.30;;;;;;6177510;28;80205;-67
2023/11/24 11:24:06;;;;;;;6.25;2.47;;;24.90;33.40;;;;;;6174358;28;80491;-64
2023/11/24 11:27:07;;;;;;;7.13;2.90;;;24.90;33.30;;;;;;6175626;28;80798;-68
2023/11/24 11:30:07;;;;;;;7.60;2.55;;;24.90;33.30;;;;;;6174275;28;82268;-58
2023/11/24 11:33:08;;;;;;;9.35;2.95;;;24.70;33.30;;;;;;6177700;28;82254;-57
2023/11/24 11:36:10;;;;;;;5.45;2.30;;;24.60;33.00;;;;;;6178281;28;80178;-57
2023/11/24 11:39:10;;;;;;;8.07;2.17;;;24.50;33.10;;;;;;6177297;28;81819;-57
2023/11/24 11:42:16;;;;;;;4.60;2.05;;;24.50;32.90;;;;;;6178469;28;80424;-56
2023/11/24 11:45:16;;;;;;;5.30;1.90;;;24.40;33.20;;;;;;6197616;28;87704;-58
2023/11/24 11:48:17;;;;;;;7.78;2.40;;;24.30;33.20;;;;;;6186714;28;80513;-64
2023/11/24 11:51:17;;;;;;;4.85;2.20;;;24.10;33.30;;;;;;6179392;28;80798;-65
2023/11/24 11:54:18;;;;;;;7.05;2.28;;;24.10;33.40;;;;;;6175073;28;85536;-65
2023/11/24 11:57:19;;;;;;;4.28;1.83;;;24.10;34.00;;;;;;6173946;28;80023;-63
2023/11/24 12:00:19;;;;;;;5.22;2.33;;;24.10;34.40;;;;;;6175940;28;80197;-63
2023/11/24 12:03:20;;;;;;;5.85;2.35;;;24.10;35.20;;;;;;6174810;28;81368;-66
2023/11/24 12:06:20;;;;;;;5.57;2.20;;;24.10;35.50;;;;;;6193249;28;80708;-65
2023/11/24 12:09:21;;;;;;;3.90;1.70;;;24.10;35.90;;;;;;6193046;28;82254;-66
2023/11/24 12:12:22;;;;;;;8.82;2.22;;;24.10;35.90;;;;;;6197831;28;80520;-65
2023/11/24 12:15:23;;;;;;;5.97;2.83;;;24.10;36.20;;;;;;6178469;28;80789;-64
2023/11/24 12:18:24;;;;;;;4.63;1.70;;;24.10;36.40;;;;;;6178090;28;80728;-64
2023/11/24 12:21:24;;;;;;;3.65;1.75;;;24.10;36.70;;;;;;6177188;28;81601;-64
2023/11/24 12:24:26;;;;;;;3.70;1.50;;;24.10;36.60;;;;;;6177494;28;80480;-65
2023/11/24 12:27:27;;;;;;;4.32;2.10;;;24.00;36.80;;;;;;6177681;28;81828;-65
2023/11/24 12:30:28;;;;;;;3.03;1.70;;;24.00;37.00;;;;;;6169915;28;82163;-63
2023/11/24 12:33:29;;;;;;;4.53;2.00;;;24.00;37.20;;;;;;6176146;28;80245;-63
2023/11/24 12:36:29;;;;;;;4.82;1.90;;;24.00;37.20;;;;;;6196169;28;80458;-66
2023/11/24 12:39:34;;;;;;;4.55;2.10;;;24.00;37.30;;;;;;6196274;28;80164;-65
2023/11/24 12:42:34;;;;;;;4.72;2.05;;;24.00;37.50;;;;;;6177142;28;80597;-61
2023/11/24 12:45:35;;;;;;;5.20;2.25;;;24.00;37.60;;;;;;6194793;28;80324;-60
2023/11/24 12:48:39;;;;;;;8.45;2.72;;;24.00;37.70;;;;;;6167494;28;84253;-63
2023/11/24 12:51:42;;;;;;;4.75;2.03;;;24.00;37.90;;;;;;6182956;28;80492;-62
2023/11/24 12:54:42;;;;;;;6.13;2.53;;;24.00;38.10;;;;;;6196235;28;81669;-61
2023/11/24 12:57:43;;;;;;;5.85;2.20;;;24.00;38.10;;;;;;6187793;28;81377;-60
2023/11/24 13:00:43;;;;;;;5.70;2.00;;;24.00;38.30;;;;;;6177440;28;80582;-61
2023/11/24 13:03:44;;;;;;;5.50;1.80;;;24.00;38.30;;;;;;6164075;28;86028;-61
2023/11/24 13:06:47;;;;;;;6.35;2.20;;;24.00;38.70;;;;;;6177551;28;80745;-59
2023/11/24 13:09:49;;;;;;;2.95;1.67;;;24.00;38.50;;;;;;6171183;28;80707;-59
2023/11/24 13:12:50;;;;;;;5.88;1.88;;;24.00;38.80;;;;;;6193399;28;81986;-56
2023/11/24 13:15:52;;;;;;;6.75;2.42;;;24.10;39.00;;;;;;6175459;28;82959;-57
2023/11/24 13:18:57;;;;;;;2.90;1.70;;;24.00;39.00;;;;;;6166752;28;85009;-62
2023/11/24 13:21:58;;;;;;;4.40;2.03;;;24.10;39.10;;;;;;6175887;28;81045;-62
2023/11/24 13:24:58;;;;;;;3.85;1.98;;;24.00;39.20;;;;;;6174401;28;80609;-60
2023/11/24 13:28:00;;;;;;;3.40;1.77;;;24.00;39.70;;;;;;6173885;28;80428;-61
2023/11/24 13:31:01;;;;;;;5.10;1.80;;;24.00;39.40;;;;;;6170397;28;80429;-62
2023/11/24 13:34:02;;;;;;;4.40;1.95;;;24.00;39.40;;;;;;6174197;28;80949;-62
2023/11/24 13:37:02;;;;;;;3.92;1.58;;;24.00;39.70;;;;;;6174399;28;82330;-62
2023/11/24 13:40:03;;;;;;;6.35;2.25;;;24.00;39.60;;;;;;6175072;28;80567;-68
2023/11/24 13:43:03;;;;;;;3.45;1.40;;;24.00;39.50;;;;;;6175376;28;80300;-72
2023/11/24 13:46:04;;;;;;;3.55;1.40;;;24.00;39.50;;;;;;6173435;28;81322;-70
2023/11/24 13:49:05;;;;;;;4.28;1.98;;;24.00;39.50;;;;;;6173183;28;86261;-63
2023/11/24 13:52:06;;;;;;;3.47;1.50;;;23.90;39.50;;;;;;6170914;28;81034;-60
2023/11/24 13:55:07;;;;;;;4.32;1.48;;;23.90;39.50;;;;;;6174435;28;80888;-65
2023/11/24 13:58:07;;;;;;;2.85;1.52;;;23.80;40.40;;;;;;6168572;28;81047;-63
2023/11/24 14:01:08;;;;;;;6.47;1.92;;;23.80;40.70;;;;;;6173583;28;81119;-64
2023/11/24 14:04:11;;;;;;;5.18;1.70;;;23.70;41.20;;;;;;6173457;28;80623;-65
2023/11/24 14:07:15;;;;;;;4.25;1.70;;;23.70;41.50;;;;;;6172478;28;81050;-64
2023/11/24 14:10:16;;;;;;;3.55;1.40;;;23.70;42.90;;;;;;6168241;28;82029;-64
2023/11/24 14:13:17;;;;;;;6.82;2.00;;;23.60;42.10;;;;;;6170031;28;80919;-64
2023/11/24 14:16:17;;;;;;;5.30;1.98;;;23.60;42.70;;;;;;6171582;28;80639;-64
2023/11/24 14:19:18;;;;;;;3.92;1.50;;;23.60;42.80;;;;;;6165636;28;80964;-63
2023/11/24 14:22:20;;;;;;;4.55;1.60;;;23.50;42.90;;;;;;6161138;28;82785;-68
2023/11/24 14:25:21;;;;;;;4.30;1.77;;;23.40;42.80;;;;;;6170667;28;81345;-62
2023/11/24 14:28:21;;;;;;;6.35;1.58;;;23.50;42.30;;;;;;6166902;28;83218;-63
2023/11/24 14:31:22;;;;;;;5.53;1.58;;;23.50;42.70;;;;;;6126574;28;1207314;-63
2023/11/24 14:34:22;;;;;;;11.35;2.35;;;23.50;42.80;;;;;;6172863;28;82031;-60
2023/11/24 14:37:23;;;;;;;3.20;1.58;;;23.50;42.90;;;;;;6174032;28;84658;-66
2023/11/24 14:40:23;;;;;;;5.50;1.63;;;23.40;43.20;;;;;;6174574;28;81448;-66
2023/11/24 14:43:24;;;;;;;4.38;1.55;;;23.40;43.80;;;;;;6172174;28;80512;-63
2023/11/24 14:46:28;;;;;;;7.57;1.65;;;23.40;43.20;;;;;;6172621;28;80323;-62
2023/11/24 14:49:29;;;;;;;5.07;1.50;;;23.40;43.30;;;;;;6172527;28;80446;-62
2023/11/24 14:52:29;;;;;;;2.97;1.67;;;23.40;43.60;;;;;;6171354;28;80941;-64
2023/11/24 14:55:34;;;;;;;4.45;1.70;;;23.40;44.10;;;;;;6174878;28;80487;-63
2023/11/24 14:58:36;;;;;;;4.90;1.63;;;23.40;43.90;;;;;;6167979;28;80535;-63
2023/11/24 15:01:38;;;;;;;4.10;1.42;;;23.40;43.90;;;;;;6174353;28;81661;-63
2023/11/24 15:04:39;;;;;;;5.75;1.55;;;23.40;44.00;;;;;;6165462;28;81681;-64
2023/11/24 15:07:41;;;;;;;3.55;1.50;;;23.40;45.00;;;;;;6171985;28;81195;-60
2023/11/24 15:10:42;;;;;;;4.90;1.80;;;23.40;44.70;;;;;;6168298;28;82788;-57
2023/11/24 15:13:42;;;;;;;5.53;1.58;;;23.40;44.30;;;;;;6172524;28;80880;-60
2023/11/24 15:16:52;;;;;;;3.72;1.48;;;23.40;44.10;;;;;;6174433;28;80510;-58
2023/11/24 15:19:54;;;;;;;3.58;1.65;;;23.30;44.10;;;;;;6171351;28;81840;-58
2023/11/24 15:22:55;;;;;;;5.80;1.60;;;23.30;44.20;;;;;;6174978;28;80475;-57
2023/11/24 15:25:57;;;;;;;3.55;1.67;;;23.30;44.50;;;;;;6176804;28;80529;-57
2023/11/24 15:29:00;;;;;;;2.80;1.30;;;23.30;44.30;;;;;;6177484;28;81076;-71
2023/11/24 15:32:00;;;;;;;3.53;1.60;;;23.30;44.50;;;;;;6172957;28;82598;-67
2023/11/24 15:35:01;;;;;;;6.35;1.55;;;23.30;44.70;;;;;;6179197;28;80648;-70
2023/11/24 15:38:02;;;;;;;4.35;2.03;;;23.30;44.70;;;;;;6176632;28;80775;-70
2023/11/24 15:41:06;;;;;;;3.75;2.05;;;23.30;44.90;;;;;;6181389;28;80719;-64